createdAt,value
2019-03-28T00:00:31.113Z,0.00
2019-03-28T00:01:31.306Z,0.00
2019-03-28T00:02:31.489Z,0.00
2019-03-28T00:03:31.665Z,0.00
2019-03-28T00:04:31.855Z,0.00
2019-03-28T00:05:32.033Z,0.00
2019-03-28T00:06:32.216Z,0.00
2019-03-28T00:07:32.398Z,0.00
2019-03-28T00:08:32.593Z,0.00
2019-03-28T00:09:32.768Z,0.00
2019-03-28T00:10:32.960Z,0.00
2019-03-28T00:11:33.144Z,0.00
2019-03-28T00:12:33.327Z,0.00
2019-03-28T00:13:33.514Z,0.00
2019-03-28T00:14:33.681Z,0.00
2019-03-28T00:15:33.899Z,0.00
2019-03-28T00:16:34.051Z,0.00
2019-03-28T00:17:34.247Z,0.00
2019-03-28T00:18:34.426Z,0.00
2019-03-28T00:19:34.603Z,0.00
2019-03-28T00:20:35.342Z,0.00
2019-03-28T00:21:34.973Z,0.00
2019-03-28T00:22:35.152Z,0.00
2019-03-28T00:23:35.344Z,0.00
2019-03-28T00:24:35.526Z,0.00
2019-03-28T00:25:35.715Z,0.00
2019-03-28T00:26:35.906Z,0.00
2019-03-28T00:27:36.082Z,0.00
2019-03-28T00:28:36.971Z,0.00
2019-03-28T00:29:36.449Z,0.00
2019-03-28T00:30:36.641Z,0.00
2019-03-28T00:31:36.820Z,0.00
2019-03-28T00:32:37.005Z,0.00
2019-03-28T00:33:37.205Z,0.00
2019-03-28T00:34:37.395Z,0.00
2019-03-28T00:35:37.595Z,0.00
2019-03-28T00:36:37.763Z,0.00
2019-03-28T00:37:37.973Z,0.00
2019-03-28T00:38:38.151Z,0.00
2019-03-28T00:39:38.330Z,0.00
2019-03-28T00:40:38.512Z,0.00
2019-03-28T00:41:38.692Z,0.00
2019-03-28T00:42:38.880Z,0.00
2019-03-28T00:43:39.058Z,0.00
2019-03-28T00:44:39.249Z,0.00
2019-03-28T00:45:39.424Z,0.00
2019-03-28T00:46:39.607Z,0.00
2019-03-28T00:47:39.808Z,0.00
2019-03-28T00:48:39.961Z,0.00
2019-03-28T00:49:40.145Z,0.00
2019-03-28T00:50:40.358Z,0.00
2019-03-28T00:51:43.021Z,0.00
2019-03-28T00:52:41.152Z,0.00
2019-03-28T00:53:40.889Z,0.00
2019-03-28T00:54:41.069Z,0.00
2019-03-28T00:55:41.251Z,0.00
2019-03-28T00:56:46.851Z,0.00
2019-03-28T00:57:41.606Z,0.00
2019-03-28T00:58:41.800Z,0.00
2019-03-28T00:59:41.978Z,0.00
2019-03-28T01:00:42.161Z,0.00
2019-03-28T01:01:42.343Z,0.00
2019-03-28T01:02:42.524Z,0.00
2019-03-28T01:03:42.711Z,0.00
2019-03-28T01:04:42.894Z,0.00
2019-03-28T01:05:43.092Z,0.00
2019-03-28T01:06:43.258Z,0.00
2019-03-28T01:07:43.438Z,0.00
2019-03-28T01:08:43.650Z,0.00
2019-03-28T01:09:43.814Z,0.00
2019-03-28T01:10:43.990Z,0.00
2019-03-28T01:11:44.163Z,0.00
2019-03-28T01:12:44.344Z,0.00
2019-03-28T01:13:44.527Z,0.00
2019-03-28T01:14:44.705Z,0.00
2019-03-28T01:15:44.889Z,0.00
2019-03-28T01:16:45.087Z,0.00
2019-03-28T01:17:45.270Z,0.00
2019-03-28T01:18:45.509Z,0.00
2019-03-28T01:19:45.633Z,0.00
2019-03-28T01:20:45.813Z,0.00
2019-03-28T01:21:45.991Z,0.00
2019-03-28T01:22:46.176Z,0.00
2019-03-28T01:23:46.367Z,0.00
2019-03-28T01:24:46.563Z,0.00
2019-03-28T01:25:46.738Z,0.00
2019-03-28T01:26:56.609Z,0.00
2019-03-28T01:27:47.103Z,0.00
2019-03-28T01:28:47.287Z,0.00
2019-03-28T01:29:47.471Z,0.00
2019-03-28T01:30:47.652Z,0.00
2019-03-28T01:31:47.838Z,0.00
2019-03-28T01:32:48.023Z,0.00
2019-03-28T01:33:48.202Z,0.00
2019-03-28T01:34:48.380Z,0.00
2019-03-28T01:35:48.578Z,0.00
2019-03-28T01:36:48.767Z,0.00
2019-03-28T01:37:48.941Z,0.00
2019-03-28T01:38:49.126Z,0.00
2019-03-28T01:39:49.310Z,0.00
2019-03-28T01:40:49.498Z,0.00
2019-03-28T01:41:49.680Z,0.00
2019-03-28T01:42:49.865Z,0.00
2019-03-28T01:43:50.044Z,0.00
2019-03-28T01:44:50.225Z,0.00
2019-03-28T01:45:50.423Z,0.00
2019-03-28T01:46:50.592Z,0.00
2019-03-28T01:47:50.779Z,0.00
2019-03-28T01:48:50.961Z,0.00
2019-03-28T01:49:51.143Z,0.00
2019-03-28T01:50:51.324Z,0.00
2019-03-28T01:51:51.509Z,0.00
2019-03-28T01:52:51.695Z,0.00
2019-03-28T01:53:51.877Z,0.00
2019-03-28T01:54:52.066Z,0.00
2019-03-28T01:55:52.243Z,0.00
2019-03-28T01:56:52.440Z,0.00
2019-03-28T01:57:52.609Z,0.00
2019-03-28T01:58:52.804Z,0.00
2019-03-28T01:59:53.031Z,0.00
2019-03-28T02:00:53.172Z,0.00
2019-03-28T02:01:53.358Z,0.00
2019-03-28T02:02:53.538Z,0.00
2019-03-28T02:03:53.723Z,0.00
2019-03-28T02:04:53.912Z,0.00
2019-03-28T02:05:54.105Z,0.00
2019-03-28T02:06:54.294Z,0.00
2019-03-28T02:07:54.468Z,0.00
2019-03-28T02:08:54.660Z,0.00
2019-03-28T02:09:54.831Z,0.00
2019-03-28T02:10:55.041Z,0.00
2019-03-28T02:11:55.222Z,0.00
2019-03-28T02:12:56.197Z,0.00
2019-03-28T02:13:55.591Z,0.00
2019-03-28T02:14:55.780Z,0.00
2019-03-28T02:15:55.976Z,0.00
2019-03-28T02:16:56.163Z,0.00
2019-03-28T02:17:56.337Z,0.00
2019-03-28T02:18:56.524Z,0.00
2019-03-28T02:19:56.709Z,0.00
2019-03-28T02:20:56.887Z,0.00
2019-03-28T02:21:57.081Z,0.00
2019-03-28T02:22:57.271Z,0.00
2019-03-28T02:23:57.448Z,0.00
2019-03-28T02:24:57.626Z,0.00
2019-03-28T02:25:57.809Z,0.00
2019-03-28T02:26:57.992Z,0.00
2019-03-28T02:27:58.176Z,0.00
2019-03-28T02:28:58.366Z,0.00
2019-03-28T02:29:58.553Z,0.00
2019-03-28T02:30:58.735Z,0.00
2019-03-28T02:31:58.917Z,0.00
2019-03-28T02:32:59.941Z,0.00
2019-03-28T02:33:59.279Z,0.00
2019-03-28T02:34:59.468Z,0.00
2019-03-28T02:35:59.642Z,0.00
2019-03-28T02:36:59.826Z,0.00
2019-03-28T02:38:00.009Z,0.00
2019-03-28T02:39:00.187Z,0.00
2019-03-28T02:40:00.507Z,0.00
2019-03-28T02:41:00.572Z,0.00
2019-03-28T02:42:01.599Z,0.00
2019-03-28T02:43:00.947Z,0.00
2019-03-28T02:44:01.135Z,0.00
2019-03-28T02:45:01.331Z,0.00
2019-03-28T02:46:01.517Z,0.00
2019-03-28T02:47:01.716Z,0.00
2019-03-28T02:48:02.085Z,0.00
2019-03-28T02:49:02.071Z,0.00
2019-03-28T02:50:02.264Z,0.00
2019-03-28T02:51:03.752Z,0.00
2019-03-28T02:52:02.635Z,0.00
2019-03-28T02:53:02.818Z,0.00
2019-03-28T02:54:03.015Z,0.00
2019-03-28T02:55:03.197Z,0.00
2019-03-28T02:56:03.368Z,0.00
2019-03-28T02:57:03.542Z,0.00
2019-03-28T02:58:03.732Z,0.00
2019-03-28T02:59:03.911Z,0.00
2019-03-28T03:00:04.091Z,0.00
2019-03-28T03:01:04.289Z,0.00
2019-03-28T03:02:04.469Z,0.00
2019-03-28T03:03:04.655Z,0.00
2019-03-28T03:04:04.834Z,0.00
2019-03-28T03:05:05.017Z,0.00
2019-03-28T03:06:05.193Z,0.00
2019-03-28T03:07:05.377Z,0.00
2019-03-28T03:08:05.562Z,0.00
2019-03-28T03:09:05.741Z,0.00
2019-03-28T03:10:05.926Z,0.00
2019-03-28T03:11:06.118Z,0.00
2019-03-28T03:12:06.296Z,0.00
2019-03-28T03:13:06.479Z,0.00
2019-03-28T03:14:06.668Z,0.00
2019-03-28T03:15:06.859Z,0.00
2019-03-28T03:16:07.035Z,0.00
2019-03-28T03:17:07.217Z,0.00
2019-03-28T03:18:07.963Z,0.00
2019-03-28T03:19:07.583Z,0.00
2019-03-28T03:20:07.811Z,0.00
2019-03-28T03:21:08.016Z,0.00
2019-03-28T03:22:08.143Z,0.00
2019-03-28T03:23:08.318Z,0.00
2019-03-28T03:24:08.507Z,0.00
2019-03-28T03:25:08.680Z,0.00
2019-03-28T03:26:08.868Z,0.00
2019-03-28T03:27:09.050Z,0.00
2019-03-28T03:28:09.226Z,0.00
2019-03-28T03:29:09.408Z,0.00
2019-03-28T03:30:09.597Z,0.00
2019-03-28T03:31:09.780Z,0.00
2019-03-28T03:32:09.963Z,0.00
2019-03-28T03:33:10.138Z,0.00
2019-03-28T03:34:10.319Z,0.00
2019-03-28T03:35:10.509Z,0.00
2019-03-28T03:36:10.690Z,0.00
2019-03-28T03:37:10.873Z,0.00
2019-03-28T03:38:11.054Z,0.00
2019-03-28T03:39:11.241Z,0.00
2019-03-28T03:40:11.420Z,0.00
2019-03-28T03:41:11.626Z,0.00
2019-03-28T03:42:11.799Z,0.00
2019-03-28T03:43:11.973Z,0.00
2019-03-28T03:44:12.160Z,0.00
2019-03-28T03:45:12.336Z,0.00
2019-03-28T03:46:12.529Z,0.00
2019-03-28T03:47:12.706Z,0.00
2019-03-28T03:48:12.909Z,0.00
2019-03-28T03:49:13.096Z,0.00
2019-03-28T03:50:13.281Z,0.00
2019-03-28T03:51:14.590Z,0.00
2019-03-28T03:52:13.662Z,0.00
2019-03-28T03:53:13.826Z,0.00
2019-03-28T03:54:14.018Z,0.00
2019-03-28T03:55:14.199Z,0.00
2019-03-28T03:56:14.376Z,0.00
2019-03-28T03:57:14.559Z,0.00
2019-03-28T03:58:16.841Z,0.00
2019-03-28T03:59:14.922Z,0.00
2019-03-28T04:00:15.110Z,0.00
2019-03-28T04:01:15.294Z,0.00
2019-03-28T04:02:15.471Z,0.00
2019-03-28T04:03:15.660Z,0.00
2019-03-28T04:04:15.842Z,0.00
2019-03-28T04:05:16.038Z,0.00
2019-03-28T04:06:16.222Z,0.00
2019-03-28T04:07:16.420Z,0.00
2019-03-28T04:08:16.602Z,0.00
2019-03-28T04:09:16.792Z,0.00
2019-03-28T04:10:16.972Z,0.00
2019-03-28T04:11:17.154Z,0.00
2019-03-28T04:12:17.337Z,0.00
2019-03-28T04:13:17.517Z,0.00
2019-03-28T04:14:17.705Z,0.00
2019-03-28T04:15:17.892Z,0.00
2019-03-28T04:16:18.070Z,0.00
2019-03-28T04:17:18.513Z,0.00
2019-03-28T04:18:21.842Z,0.00
2019-03-28T04:19:18.651Z,0.00
2019-03-28T04:20:18.852Z,0.00
2019-03-28T04:21:19.033Z,0.00
2019-03-28T04:22:19.213Z,0.00
2019-03-28T04:23:19.399Z,0.00
2019-03-28T04:24:19.592Z,0.00
2019-03-28T04:25:19.772Z,0.00
2019-03-28T04:26:19.946Z,0.00
2019-03-28T04:27:20.980Z,0.00
2019-03-28T04:28:31.596Z,0.00
2019-03-28T04:29:20.494Z,0.00
2019-03-28T04:30:20.685Z,0.00
2019-03-28T04:31:20.858Z,0.00
2019-03-28T04:32:21.035Z,0.00
2019-03-28T04:33:21.219Z,0.00
2019-03-28T04:34:21.405Z,0.00
2019-03-28T04:35:21.588Z,0.00
2019-03-28T04:36:21.779Z,0.00
2019-03-28T04:37:21.958Z,0.00
2019-03-28T04:38:22.147Z,0.00
2019-03-28T04:39:22.324Z,0.00
2019-03-28T04:40:22.514Z,0.00
2019-03-28T04:41:22.693Z,0.00
2019-03-28T04:42:22.876Z,4.00
2019-03-28T04:43:23.087Z,0.00
2019-03-28T04:44:23.265Z,4.00
2019-03-28T04:45:23.446Z,4.00
2019-03-28T04:46:23.630Z,4.00
2019-03-28T04:47:23.799Z,4.00
2019-03-28T04:48:24.005Z,8.00
2019-03-28T04:49:24.200Z,8.00
2019-03-28T04:50:24.384Z,8.00
2019-03-28T04:51:24.556Z,12.00
2019-03-28T04:52:24.739Z,12.00
2019-03-28T04:53:24.922Z,12.00
2019-03-28T04:54:25.107Z,20.00
2019-03-28T04:55:25.288Z,20.00
2019-03-28T04:56:25.475Z,20.00
2019-03-28T04:57:25.687Z,24.00
2019-03-28T04:58:25.876Z,28.00
2019-03-28T04:59:26.061Z,36.00
2019-03-28T05:00:26.241Z,40.00
2019-03-28T05:01:26.430Z,48.00
2019-03-28T05:02:26.610Z,52.00
2019-03-28T05:03:26.800Z,56.00
2019-03-28T05:04:26.978Z,64.00
2019-03-28T05:05:27.168Z,72.00
2019-03-28T05:06:27.355Z,80.00
2019-03-28T05:07:27.551Z,84.00
2019-03-28T05:08:27.730Z,92.00
2019-03-28T05:09:27.912Z,100.00
2019-03-28T05:10:28.096Z,100.00
2019-03-28T05:11:28.283Z,104.00
2019-03-28T05:12:28.464Z,112.00
2019-03-28T05:13:28.646Z,116.00
2019-03-28T05:14:28.835Z,124.00
2019-03-28T05:15:29.020Z,128.00
2019-03-28T05:16:29.223Z,136.00
2019-03-28T05:17:29.397Z,140.00
2019-03-28T05:18:29.584Z,144.00
2019-03-28T05:19:29.770Z,152.00
2019-03-28T05:20:29.953Z,156.00
2019-03-28T05:21:30.139Z,160.00
2019-03-28T05:22:30.333Z,168.00
2019-03-28T05:23:30.513Z,180.00
2019-03-28T05:24:30.692Z,196.00
2019-03-28T05:25:30.876Z,220.00
2019-03-28T05:26:31.057Z,236.00
2019-03-28T05:27:31.244Z,252.00
2019-03-28T05:28:31.423Z,264.00
2019-03-28T05:29:31.614Z,280.00
2019-03-28T05:30:31.798Z,292.00
2019-03-28T05:31:31.979Z,312.00
2019-03-28T05:32:32.163Z,332.00
2019-03-28T05:33:32.348Z,360.00
2019-03-28T05:34:32.536Z,384.00
2019-03-28T05:35:32.721Z,412.00
2019-03-28T05:36:32.909Z,444.00
2019-03-28T05:37:33.094Z,472.00
2019-03-28T05:38:33.281Z,504.00
2019-03-28T05:39:33.466Z,532.00
2019-03-28T05:40:33.647Z,556.00
2019-03-28T05:41:33.832Z,580.00
2019-03-28T05:42:34.012Z,604.00
2019-03-28T05:43:34.194Z,616.00
2019-03-28T05:44:34.376Z,628.00
2019-03-28T05:45:34.561Z,632.00
2019-03-28T05:46:34.752Z,624.00
2019-03-28T05:47:34.937Z,620.00
2019-03-28T05:48:35.123Z,628.00
2019-03-28T05:49:35.307Z,632.00
2019-03-28T05:50:35.492Z,640.00
2019-03-28T05:51:35.674Z,656.00
2019-03-28T05:52:35.863Z,672.00
2019-03-28T05:53:36.040Z,696.00
2019-03-28T05:54:36.220Z,736.00
2019-03-28T05:55:36.402Z,788.00
2019-03-28T05:56:36.586Z,868.00
2019-03-28T05:57:36.765Z,948.00
2019-03-28T05:58:36.955Z,1020.00
2019-03-28T05:59:37.122Z,1060.00
2019-03-28T06:00:39.010Z,1092.00
2019-03-28T06:01:37.488Z,1112.00
2019-03-28T06:02:37.679Z,1124.00
2019-03-28T06:03:37.856Z,1136.00
2019-03-28T06:04:38.045Z,1132.00
2019-03-28T06:05:38.235Z,1128.00
2019-03-28T06:06:38.437Z,1144.00
2019-03-28T06:07:38.613Z,1184.00
2019-03-28T06:08:38.795Z,1212.00
2019-03-28T06:09:40.287Z,1200.00
2019-03-28T06:10:39.161Z,1200.00
2019-03-28T06:11:39.325Z,1212.00
2019-03-28T06:12:39.544Z,1228.00
2019-03-28T06:13:39.709Z,1248.00
2019-03-28T06:14:39.898Z,1252.00
2019-03-28T06:15:41.172Z,1260.00
2019-03-28T06:16:40.263Z,1300.00
2019-03-28T06:17:40.448Z,1368.00
2019-03-28T06:18:40.634Z,1464.00
2019-03-28T06:19:40.817Z,1584.00
2019-03-28T06:20:41.028Z,1700.00
2019-03-28T06:21:41.181Z,1760.00
2019-03-28T06:22:41.377Z,1764.00
2019-03-28T06:23:41.565Z,1768.00
2019-03-28T06:24:41.730Z,1744.00
2019-03-28T06:25:41.913Z,1808.00
2019-03-28T06:26:42.126Z,1944.00
2019-03-28T06:27:42.325Z,2056.00
2019-03-28T06:28:42.500Z,2176.00
2019-03-28T06:29:42.687Z,2340.00
2019-03-28T06:30:42.865Z,2556.00
2019-03-28T06:31:54.641Z,2800.00
2019-03-28T06:32:43.667Z,3000.00
2019-03-28T06:33:43.435Z,3200.00
2019-03-28T06:34:43.661Z,3432.00
2019-03-28T06:35:43.867Z,3728.00
2019-03-28T06:36:44.064Z,4048.00
2019-03-28T06:37:44.239Z,4396.00
2019-03-28T06:38:44.423Z,4780.00
2019-03-28T06:39:44.596Z,5128.00
2019-03-28T06:40:44.780Z,5388.00
2019-03-28T06:41:44.968Z,5564.00
2019-03-28T06:42:45.148Z,5724.00
2019-03-28T06:43:45.330Z,5828.00
2019-03-28T06:44:45.511Z,5872.00
2019-03-28T06:45:45.694Z,5840.00
2019-03-28T06:46:45.882Z,5724.00
2019-03-28T06:47:46.065Z,5660.00
2019-03-28T06:48:46.259Z,5712.00
2019-03-28T06:49:46.432Z,5876.00
2019-03-28T06:50:46.616Z,6096.00
2019-03-28T06:51:46.798Z,6324.00
2019-03-28T06:52:47.007Z,6564.00
2019-03-28T06:53:47.167Z,6808.00
2019-03-28T06:54:47.354Z,7076.00
2019-03-28T06:55:47.543Z,7352.00
2019-03-28T06:56:47.723Z,7652.00
2019-03-28T06:57:47.911Z,7984.00
2019-03-28T06:58:48.089Z,8356.00
2019-03-28T06:59:48.287Z,8776.00
2019-03-28T07:00:48.465Z,9260.00
2019-03-28T07:01:48.658Z,9792.00
2019-03-28T07:02:48.878Z,10376.00
2019-03-28T07:03:49.030Z,10952.00
2019-03-28T07:04:49.208Z,11480.00
2019-03-28T07:05:49.409Z,12064.00
2019-03-28T07:06:49.565Z,12732.00
2019-03-28T07:07:49.752Z,13512.00
2019-03-28T07:08:49.939Z,14592.00
2019-03-28T07:09:50.123Z,16352.00
2019-03-28T07:10:51.181Z,18944.00
2019-03-28T07:11:50.485Z,23392.00
2019-03-28T07:12:50.676Z,32960.00
2019-03-28T07:13:50.861Z,43840.00
2019-03-28T07:14:51.029Z,36224.00
2019-03-28T07:15:51.225Z,49952.00
2019-03-28T07:16:51.404Z,36832.00
2019-03-28T07:17:51.599Z,52064.00
2019-03-28T07:18:51.817Z,65984.00
2019-03-28T07:19:51.970Z,71904.00
2019-03-28T07:20:52.445Z,58592.00
2019-03-28T07:21:52.361Z,38752.00
2019-03-28T07:22:52.552Z,30880.00
2019-03-28T07:23:52.746Z,26784.00
2019-03-28T07:24:52.940Z,23264.00
2019-03-28T07:25:53.135Z,21024.00
2019-03-28T07:26:53.333Z,19648.00
2019-03-28T07:27:53.540Z,18560.00
2019-03-28T07:28:54.391Z,18496.00
2019-03-28T07:29:53.910Z,20064.00
2019-03-28T07:30:54.096Z,20864.00
2019-03-28T07:31:54.285Z,19616.00
2019-03-28T07:32:54.473Z,18144.00
2019-03-28T07:33:54.656Z,17632.00
2019-03-28T07:34:54.856Z,17248.00
2019-03-28T07:35:55.045Z,17952.00
2019-03-28T07:36:55.243Z,19104.00
2019-03-28T07:37:55.426Z,22624.00
2019-03-28T07:38:55.620Z,26848.00
2019-03-28T07:39:55.817Z,32320.00
2019-03-28T07:40:56.004Z,31296.00
2019-03-28T07:41:56.220Z,26848.00
2019-03-28T07:42:56.386Z,26464.00
2019-03-28T07:43:56.580Z,27360.00
2019-03-28T07:44:56.808Z,24448.00
2019-03-28T07:45:56.973Z,21248.00
2019-03-28T07:46:57.159Z,19232.00
2019-03-28T07:47:57.351Z,18272.00
2019-03-28T07:48:57.545Z,17696.00
2019-03-28T07:49:57.748Z,17056.00
2019-03-28T07:50:57.935Z,17760.00
2019-03-28T07:51:58.144Z,19680.00
2019-03-28T07:52:58.338Z,22208.00
2019-03-28T07:53:58.529Z,24512.00
2019-03-28T07:54:58.716Z,26432.00
2019-03-28T07:55:58.919Z,30368.00
2019-03-28T07:56:59.109Z,34816.00
2019-03-28T07:57:59.304Z,33888.00
2019-03-28T07:58:59.489Z,35552.00
2019-03-28T08:00:04.556Z,36896.00
2019-03-28T08:00:59.897Z,41056.00
2019-03-28T08:02:00.103Z,35616.00
2019-03-28T08:03:00.298Z,33696.00
2019-03-28T08:04:00.493Z,30816.00
2019-03-28T08:05:01.893Z,33440.00
2019-03-28T08:06:00.875Z,32320.00
2019-03-28T08:07:01.075Z,32384.00
2019-03-28T08:08:01.811Z,30976.00
2019-03-28T08:09:01.474Z,30816.00
2019-03-28T08:10:01.664Z,32832.00
2019-03-28T08:11:01.857Z,33312.00
2019-03-28T08:12:02.056Z,32096.00
2019-03-28T08:13:02.249Z,31968.00
2019-03-28T08:14:02.449Z,32544.00
2019-03-28T08:15:02.644Z,33152.00
2019-03-28T08:16:02.850Z,32544.00
2019-03-28T08:17:03.041Z,32416.00
2019-03-28T08:18:03.254Z,32544.00
2019-03-28T08:19:03.436Z,31616.00
2019-03-28T08:20:03.636Z,33664.00
2019-03-28T08:21:03.822Z,34144.00
2019-03-28T08:22:04.031Z,34336.00
2019-03-28T08:23:04.222Z,32352.00
2019-03-28T08:24:04.428Z,33664.00
2019-03-28T08:25:07.074Z,31968.00
2019-03-28T08:26:05.722Z,33280.00
2019-03-28T08:27:05.017Z,37792.00
2019-03-28T08:28:05.227Z,37856.00
2019-03-28T08:29:05.440Z,35840.00
2019-03-28T08:30:17.661Z,37152.00
2019-03-28T08:31:05.830Z,35200.00
2019-03-28T08:32:06.045Z,35936.00
2019-03-28T08:33:06.241Z,32576.00
2019-03-28T08:34:06.419Z,28544.00
2019-03-28T08:35:07.209Z,25568.00
2019-03-28T08:36:06.831Z,24320.00
2019-03-28T08:37:07.013Z,24416.00
2019-03-28T08:38:09.910Z,26976.00
2019-03-28T08:39:07.419Z,29472.00
2019-03-28T08:40:07.603Z,30944.00
2019-03-28T08:41:07.798Z,33568.00
2019-03-28T08:42:08.007Z,35328.00
2019-03-28T08:43:08.199Z,42080.00
2019-03-28T08:44:08.386Z,45792.00
2019-03-28T08:45:08.579Z,50880.00
2019-03-28T08:46:08.978Z,56736.00
2019-03-28T08:47:08.976Z,61888.00
2019-03-28T08:48:09.205Z,63712.00
2019-03-28T08:49:09.400Z,62304.00
2019-03-28T08:50:09.615Z,64160.00
2019-03-28T08:51:09.821Z,61632.00
2019-03-28T08:52:11.687Z,54592.00
2019-03-28T08:53:10.227Z,55712.00
2019-03-28T08:54:10.424Z,55200.00
2019-03-28T08:55:10.626Z,59200.00
2019-03-28T08:56:10.829Z,63360.00
2019-03-28T08:57:11.023Z,55776.00
2019-03-28T08:58:11.227Z,54656.00
2019-03-28T08:59:11.439Z,56960.00
2019-03-28T09:00:11.628Z,59904.00
2019-03-28T09:01:11.835Z,68672.00
2019-03-28T09:02:12.018Z,71072.00
2019-03-28T09:03:12.232Z,75872.00
2019-03-28T09:04:12.432Z,61248.00
2019-03-28T09:05:12.636Z,69568.00
2019-03-28T09:06:12.818Z,74816.00
2019-03-28T09:07:17.141Z,80224.00
2019-03-28T09:08:13.246Z,85984.00
2019-03-28T09:09:14.311Z,82528.00
2019-03-28T09:10:13.612Z,83712.00
2019-03-28T09:11:13.822Z,88576.00
2019-03-28T09:12:14.021Z,82528.00
2019-03-28T09:13:14.230Z,89472.00
2019-03-28T09:14:14.423Z,90720.00
2019-03-28T09:15:15.300Z,56224.00
2019-03-28T09:16:14.928Z,36800.00
2019-03-28T09:17:15.086Z,27360.00
2019-03-28T09:18:15.261Z,48352.00
2019-03-28T09:19:16.311Z,74752.00
2019-03-28T09:20:15.623Z,38688.00
2019-03-28T09:21:15.826Z,37120.00
2019-03-28T09:22:16.007Z,58240.00
2019-03-28T09:23:16.231Z,100864.00
2019-03-28T09:24:17.304Z,39456.00
2019-03-28T09:25:19.308Z,89408.00
2019-03-28T09:26:16.891Z,83136.00
2019-03-28T09:27:17.084Z,77792.00
2019-03-28T09:28:18.235Z,44352.00
2019-03-28T09:29:17.488Z,86784.00
2019-03-28T09:30:17.684Z,98176.00
2019-03-28T09:31:20.220Z,97568.00
2019-03-28T09:32:18.094Z,93760.00
2019-03-28T09:33:18.293Z,94944.00
2019-03-28T09:34:18.484Z,96032.00
2019-03-28T09:35:18.686Z,95616.00
2019-03-28T09:36:18.886Z,94496.00
2019-03-28T09:37:19.738Z,92480.00
2019-03-28T09:38:19.309Z,87104.00
2019-03-28T09:39:19.605Z,85952.00
2019-03-28T09:40:19.741Z,86048.00
2019-03-28T09:41:19.941Z,86944.00
2019-03-28T09:42:20.147Z,78848.00
2019-03-28T09:43:20.344Z,81760.00
2019-03-28T09:44:20.545Z,82976.00
2019-03-28T09:48:03.659Z,94784.00
2019-03-28T09:49:03.852Z,103072.00
2019-03-28T09:50:04.052Z,101056.00
2019-03-28T09:51:04.257Z,99264.00
2019-03-28T09:52:04.467Z,97440.00
2019-03-28T09:53:04.664Z,89344.00
2019-03-28T09:54:04.876Z,90080.00
2019-03-28T09:55:05.070Z,91584.00
2019-03-28T09:56:05.276Z,96448.00
2019-03-28T09:57:05.477Z,96512.00
2019-03-28T09:58:05.687Z,102656.00
2019-03-28T09:59:05.874Z,102272.00
2019-03-28T10:00:06.096Z,91840.00
2019-03-28T10:01:06.304Z,86848.00
2019-03-28T10:02:06.504Z,87520.00
2019-03-28T10:03:06.705Z,69312.00
2019-03-28T10:04:06.948Z,31616.00
2019-03-28T10:05:07.101Z,31360.00
2019-03-28T10:06:07.304Z,35776.00
2019-03-28T10:07:07.503Z,26624.00
2019-03-28T10:08:07.716Z,24128.00
2019-03-28T10:09:07.910Z,23072.00
2019-03-28T10:10:09.250Z,23840.00
2019-03-28T10:11:08.312Z,25728.00
2019-03-28T10:12:08.509Z,38304.00
2019-03-28T10:13:08.713Z,37760.00
2019-03-28T10:14:08.909Z,31360.00
2019-03-28T10:15:09.102Z,20608.00
2019-03-28T10:16:09.613Z,18592.00
2019-03-28T10:17:09.500Z,17664.00
2019-03-28T10:18:09.698Z,17152.00
2019-03-28T10:19:09.894Z,16640.00
2019-03-28T10:20:10.099Z,15936.00
2019-03-28T10:21:10.281Z,15044.00
2019-03-28T10:22:10.493Z,14892.00
2019-03-28T10:23:10.678Z,15320.00
2019-03-28T10:24:11.575Z,16224.00
2019-03-28T10:25:12.705Z,17344.00
2019-03-28T10:26:11.279Z,19008.00
2019-03-28T10:27:11.448Z,20864.00
2019-03-28T10:28:11.643Z,23808.00
2019-03-28T10:29:11.831Z,22720.00
2019-03-28T10:30:12.043Z,22976.00
2019-03-28T10:31:16.648Z,23008.00
2019-03-28T10:32:12.512Z,20768.00
2019-03-28T10:33:12.703Z,21056.00
2019-03-28T10:34:12.901Z,19904.00
2019-03-28T10:35:13.088Z,18752.00
2019-03-28T10:36:13.279Z,18880.00
2019-03-28T10:37:13.503Z,19328.00
2019-03-28T10:38:13.683Z,20512.00
2019-03-28T10:39:13.917Z,21248.00
2019-03-28T10:40:14.081Z,22624.00
2019-03-28T10:41:14.273Z,24800.00
2019-03-28T10:42:14.451Z,25440.00
2019-03-28T10:43:14.658Z,26240.00
2019-03-28T10:44:14.842Z,26688.00
2019-03-28T10:45:15.033Z,26528.00
2019-03-28T10:46:15.227Z,25600.00
2019-03-28T10:47:15.463Z,23648.00
2019-03-28T10:48:15.608Z,21632.00
2019-03-28T10:49:15.998Z,20384.00
2019-03-28T10:50:16.002Z,20256.00
2019-03-28T10:51:16.185Z,19584.00
2019-03-28T10:52:16.391Z,19040.00
2019-03-28T10:53:16.578Z,19840.00
2019-03-28T10:54:20.568Z,16928.00
2019-03-28T10:55:16.964Z,15796.00
2019-03-28T10:56:21.833Z,14628.00
2019-03-28T10:57:29.397Z,13316.00
2019-03-28T10:58:19.377Z,12868.00
2019-03-28T10:59:23.479Z,12880.00
2019-03-28T11:00:24.080Z,12004.00
2019-03-28T11:01:31.276Z,11672.00
2019-03-28T11:02:18.316Z,11524.00
2019-03-28T11:03:18.515Z,11528.00
2019-03-28T11:04:18.715Z,11688.00
2019-03-28T11:05:18.898Z,11816.00
2019-03-28T11:06:19.086Z,11868.00
2019-03-28T11:07:19.282Z,11884.00
2019-03-28T11:08:19.472Z,12084.00
2019-03-28T11:09:19.668Z,12304.00
2019-03-28T11:10:19.854Z,12392.00
2019-03-28T11:11:20.044Z,12400.00
2019-03-28T11:12:20.233Z,12604.00
2019-03-28T11:13:20.445Z,13032.00
2019-03-28T11:14:20.622Z,13728.00
2019-03-28T11:15:20.808Z,14284.00
2019-03-28T11:16:21.003Z,14472.00
2019-03-28T11:17:21.762Z,14464.00
2019-03-28T11:18:21.393Z,14304.00
2019-03-28T11:19:21.581Z,14212.00
2019-03-28T11:20:21.776Z,14280.00
2019-03-28T11:21:22.013Z,14492.00
2019-03-28T11:22:22.210Z,14800.00
2019-03-28T11:23:22.397Z,15256.00
2019-03-28T11:24:22.590Z,15780.00
2019-03-28T11:25:22.790Z,16224.00
2019-03-28T11:26:22.980Z,16544.00
2019-03-28T11:27:23.626Z,16672.00
2019-03-28T11:28:23.599Z,16864.00
2019-03-28T11:29:23.542Z,17248.00
2019-03-28T11:30:23.737Z,17856.00
2019-03-28T11:31:23.926Z,18624.00
2019-03-28T11:32:24.112Z,19168.00
2019-03-28T11:33:24.301Z,19584.00
2019-03-28T11:34:24.490Z,20224.00
2019-03-28T11:35:24.687Z,20832.00
2019-03-28T11:36:25.206Z,20704.00
2019-03-28T11:37:26.583Z,20320.00
2019-03-28T11:38:25.261Z,20480.00
2019-03-28T11:39:25.438Z,20736.00
2019-03-28T11:40:25.649Z,20864.00
2019-03-28T11:41:25.853Z,21728.00
2019-03-28T11:42:26.049Z,23520.00
2019-03-28T11:43:26.235Z,40384.00
2019-03-28T11:44:26.429Z,38464.00
2019-03-28T11:45:27.136Z,27296.00
2019-03-28T11:46:26.819Z,25952.00
2019-03-28T11:47:27.019Z,25696.00
2019-03-28T11:48:27.223Z,24736.00
2019-03-28T11:49:27.406Z,23072.00
2019-03-28T11:50:27.598Z,21504.00
2019-03-28T11:51:27.780Z,20352.00
2019-03-28T11:52:27.981Z,19168.00
2019-03-28T11:53:28.184Z,18112.00
2019-03-28T11:54:28.373Z,17440.00
2019-03-28T11:55:28.562Z,16800.00
2019-03-28T11:56:28.763Z,16384.00
2019-03-28T11:57:28.946Z,15836.00
2019-03-28T11:58:29.152Z,15536.00
2019-03-28T11:59:29.326Z,15320.00
2019-03-28T12:00:29.766Z,15284.00
2019-03-28T12:01:29.718Z,15532.00
2019-03-28T12:02:29.896Z,17120.00
2019-03-28T12:03:30.099Z,18624.00
2019-03-28T12:04:30.277Z,19488.00
2019-03-28T12:05:30.480Z,19968.00
2019-03-28T12:06:30.668Z,19360.00
2019-03-28T12:07:30.908Z,17344.00
2019-03-28T12:08:31.005Z,15656.00
2019-03-28T12:09:31.205Z,14180.00
2019-03-28T12:10:31.390Z,12888.00
2019-03-28T12:11:31.584Z,12180.00
2019-03-28T12:12:31.799Z,11596.00
2019-03-28T12:13:44.085Z,11224.00
2019-03-28T12:14:32.209Z,11444.00
2019-03-28T12:15:32.405Z,11876.00
2019-03-28T12:16:32.597Z,12108.00
2019-03-28T12:17:32.791Z,12316.00
2019-03-28T12:18:32.982Z,12292.00
2019-03-28T12:19:33.173Z,11924.00
2019-03-28T12:20:33.406Z,11332.00
2019-03-28T12:21:33.581Z,10812.00
2019-03-28T12:22:33.770Z,10424.00
2019-03-28T12:23:33.957Z,10256.00
2019-03-28T12:24:34.179Z,10292.00
2019-03-28T12:25:34.366Z,10552.00
2019-03-28T12:26:34.564Z,11020.00
2019-03-28T12:27:34.749Z,11592.00
2019-03-28T12:28:34.942Z,12140.00
2019-03-28T12:29:35.950Z,12556.00